createdAt,value
2023-05-08T00:00:05.496Z,49.04
2023-05-08T00:05:27.294Z,48.58
2023-05-08T00:10:49.262Z,48.71
2023-05-08T00:16:12.037Z,48.87
2023-05-08T00:21:34.131Z,48.59
2023-05-08T00:26:56.117Z,48.90
2023-05-08T00:32:17.986Z,49.00
2023-05-08T00:37:41.419Z,48.75
2023-05-08T00:43:03.283Z,48.92
2023-05-08T00:48:25.757Z,48.99
2023-05-08T00:53:47.798Z,48.84
2023-05-08T00:59:11.666Z,48.59
2023-05-08T01:04:35.098Z,48.77
2023-05-08T01:09:56.983Z,48.69
2023-05-08T01:15:31.922Z,48.77
2023-05-08T01:20:59.848Z,48.56
2023-05-08T01:26:45.844Z,48.56
2023-05-08T01:32:30.286Z,48.68
2023-05-08T01:38:07.010Z,48.53
2023-05-08T01:43:40.933Z,48.68
2023-05-08T01:49:09.862Z,48.72
2023-05-08T01:54:39.417Z,48.50
2023-05-08T02:00:04.314Z,48.69
2023-05-08T02:05:28.728Z,48.85
2023-05-08T02:10:52.093Z,48.39
2023-05-08T02:16:15.358Z,48.36
2023-05-08T02:21:39.315Z,48.54
2023-05-08T02:27:01.875Z,48.62
2023-05-08T02:32:26.536Z,48.82
2023-05-08T02:37:56.225Z,48.52
2023-05-08T02:43:18.108Z,48.44
2023-05-08T02:49:53.718Z,48.78
2023-05-08T02:55:21.214Z,48.33
2023-05-08T03:00:51.385Z,48.57
2023-05-08T03:06:17.290Z,48.27
2023-05-08T03:11:45.182Z,48.20
2023-05-08T03:17:09.407Z,48.66
2023-05-08T03:22:34.918Z,48.37
2023-05-08T03:27:57.455Z,48.37
2023-05-08T03:33:22.052Z,48.33
2023-05-08T03:38:44.364Z,48.11
2023-05-08T03:44:07.946Z,48.10
2023-05-08T03:49:30.697Z,48.74
2023-05-08T03:54:52.680Z,48.50
2023-05-08T04:00:45.859Z,48.27
2023-05-08T04:06:14.654Z,48.33
2023-05-08T04:11:53.983Z,48.48
2023-05-08T04:17:22.819Z,48.22
2023-05-08T04:22:46.511Z,48.03
2023-05-08T04:28:09.336Z,48.24
2023-05-08T04:33:31.473Z,48.17
2023-05-08T04:38:53.444Z,47.87
2023-05-08T04:44:15.264Z,48.21
2023-05-08T04:49:37.138Z,48.09
2023-05-08T04:54:58.905Z,48.04
2023-05-08T05:00:21.021Z,48.36
2023-05-08T05:05:42.880Z,48.13
2023-05-08T05:11:04.690Z,48.11
2023-05-08T05:16:27.660Z,47.99
2023-05-08T05:21:49.646Z,47.78
2023-05-08T05:27:11.457Z,48.01
2023-05-08T05:32:33.344Z,48.32
2023-05-08T05:37:55.339Z,48.00
2023-05-08T05:43:17.150Z,47.92
2023-05-08T05:48:39.061Z,47.96
2023-05-08T05:54:00.953Z,47.74
2023-05-08T05:59:22.833Z,48.14
2023-05-08T06:04:44.576Z,47.89
2023-05-08T06:10:07.092Z,47.90
2023-05-08T06:15:29.096Z,47.66
2023-05-08T06:20:58.568Z,48.10
2023-05-08T06:26:23.327Z,47.63
2023-05-08T06:31:45.460Z,47.83
2023-05-08T06:37:07.288Z,47.68
2023-05-08T06:42:29.218Z,47.65
2023-05-08T06:47:51.277Z,48.03
2023-05-08T06:53:13.343Z,47.75
2023-05-08T06:58:36.015Z,47.81
2023-05-08T07:03:57.963Z,47.73
2023-05-08T07:09:19.762Z,47.70
2023-05-08T07:14:41.640Z,47.51
2023-05-08T07:20:04.128Z,47.47
2023-05-08T07:25:25.995Z,47.81
2023-05-08T07:30:47.979Z,47.59
2023-05-08T07:36:09.856Z,47.64
2023-05-08T07:41:33.130Z,47.63
2023-05-08T07:46:54.994Z,47.65
2023-05-08T07:52:16.973Z,47.58
2023-05-08T07:57:41.848Z,47.44
2023-05-08T08:03:03.937Z,47.62
2023-05-08T08:08:25.909Z,47.53
2023-05-08T08:13:47.896Z,46.85
2023-05-08T08:19:10.989Z,46.97
2023-05-08T08:24:32.977Z,46.95
2023-05-08T08:30:08.259Z,46.85
2023-05-08T08:35:36.546Z,46.97
2023-05-08T08:40:59.224Z,46.80
2023-05-08T08:46:25.638Z,47.20
2023-05-08T08:51:52.908Z,47.32
2023-05-08T08:57:15.685Z,46.98
2023-05-08T09:02:37.835Z,47.33
2023-05-08T09:08:00.140Z,47.10
2023-05-08T09:13:22.575Z,46.96
2023-05-08T09:18:44.795Z,47.11
2023-05-08T09:24:06.953Z,47.05
2023-05-08T09:29:28.719Z,47.20
2023-05-08T09:34:53.940Z,46.89
2023-05-08T09:40:18.931Z,46.91
2023-05-08T09:45:41.754Z,46.89
2023-05-08T09:51:07.379Z,46.72
2023-05-08T09:56:39.942Z,46.60
2023-05-08T10:02:11.056Z,46.58
2023-05-08T10:07:38.973Z,46.94
2023-05-08T10:13:00.816Z,46.91
2023-05-08T10:18:29.140Z,46.94
2023-05-08T10:23:52.799Z,46.81
2023-05-08T10:29:21.194Z,46.84
2023-05-08T10:34:46.988Z,46.64
2023-05-08T10:40:10.171Z,46.96
2023-05-08T10:45:33.129Z,47.07
2023-05-08T10:51:28.233Z,46.87
2023-05-08T10:56:50.059Z,47.14
2023-05-08T11:02:11.986Z,46.98
2023-05-08T11:07:59.556Z,47.03
2023-05-08T11:13:29.167Z,46.90
2023-05-08T11:19:20.401Z,46.58
2023-05-08T11:25:05.447Z,46.77
2023-05-08T11:30:33.137Z,47.01
2023-05-08T11:36:19.424Z,47.06
2023-05-08T11:41:41.743Z,46.99
2023-05-08T11:47:03.889Z,46.71
2023-05-08T11:52:25.783Z,47.10
2023-05-08T11:57:47.593Z,46.69
2023-05-08T12:03:13.557Z,46.72
2023-05-08T12:08:39.372Z,47.07
2023-05-08T12:14:01.329Z,46.65
2023-05-08T12:19:23.187Z,47.14
2023-05-08T12:24:45.149Z,46.87
2023-05-08T12:30:09.870Z,46.91
2023-05-08T12:35:33.061Z,47.11
2023-05-08T12:40:58.526Z,47.06
2023-05-08T12:46:22.466Z,46.77
2023-05-08T12:51:46.610Z,46.66
2023-05-08T12:57:12.979Z,46.69
2023-05-08T13:02:39.330Z,46.73
2023-05-08T13:08:11.485Z,46.63
2023-05-08T13:13:36.576Z,46.90
2023-05-08T13:18:58.408Z,46.51
2023-05-08T13:24:20.292Z,46.36
2023-05-08T13:29:42.287Z,46.56
2023-05-08T13:35:04.530Z,46.37
2023-05-08T13:40:26.690Z,46.79
2023-05-08T13:45:51.638Z,46.53
2023-05-08T13:51:13.574Z,46.31
2023-05-08T13:56:35.660Z,46.50
2023-05-08T14:01:57.490Z,46.33
2023-05-08T14:07:19.585Z,46.21
2023-05-08T14:12:41.460Z,46.54
2023-05-08T14:18:03.302Z,46.36
2023-05-08T14:23:25.172Z,46.18
2023-05-08T14:28:47.025Z,46.19
2023-05-08T14:34:08.852Z,46.23
2023-05-08T14:39:30.648Z,46.31
2023-05-08T14:44:52.546Z,46.63
2023-05-08T14:50:14.386Z,46.32
2023-05-08T14:55:36.868Z,46.08
2023-05-08T15:00:59.038Z,46.19
2023-05-08T15:06:22.336Z,46.29
2023-05-08T15:11:44.663Z,46.17
2023-05-08T15:17:06.455Z,46.11
2023-05-08T15:22:28.429Z,46.37
2023-05-08T15:27:52.974Z,46.13
2023-05-08T15:33:15.015Z,46.22
2023-05-08T15:38:36.847Z,45.87
2023-05-08T15:43:58.736Z,45.94
2023-05-08T15:49:25.937Z,45.88
2023-05-08T15:54:48.255Z,45.82
2023-05-08T16:00:10.847Z,46.17
2023-05-08T16:05:32.637Z,46.31
2023-05-08T16:10:54.724Z,46.11
2023-05-08T16:16:16.657Z,46.10
2023-05-08T16:21:38.677Z,45.98
2023-05-08T16:27:00.613Z,45.72
2023-05-08T16:32:22.386Z,45.84
2023-05-08T16:37:44.307Z,45.80
2023-05-08T16:43:06.122Z,45.96
2023-05-08T16:48:29.170Z,45.89
2023-05-08T16:53:51.023Z,45.95
2023-05-08T16:59:12.833Z,46.25
2023-05-08T17:04:34.659Z,45.86
2023-05-08T17:09:59.189Z,46.26
2023-05-08T17:15:21.207Z,46.49
2023-05-08T17:20:43.150Z,46.11
2023-05-08T17:26:05.021Z,46.00
2023-05-08T17:31:27.988Z,46.13
2023-05-08T17:36:50.288Z,45.89
2023-05-08T17:42:12.096Z,45.69
2023-05-08T17:47:33.998Z,46.01
2023-05-08T17:52:55.873Z,46.05
2023-05-08T17:58:17.614Z,45.79
2023-05-08T18:03:39.479Z,46.13
2023-05-08T18:09:01.329Z,45.86
2023-05-08T18:14:23.078Z,45.95
2023-05-08T18:19:47.625Z,45.99
2023-05-08T18:25:09.587Z,45.81
2023-05-08T18:30:31.840Z,45.88
2023-05-08T18:35:53.669Z,45.98
2023-05-08T18:41:15.578Z,46.13
2023-05-08T18:46:37.506Z,45.96
2023-05-08T18:51:59.567Z,46.48
2023-05-08T18:57:21.385Z,46.42
2023-05-08T19:02:43.295Z,46.30
2023-05-08T19:08:05.307Z,46.42
2023-05-08T19:13:27.324Z,46.44
2023-05-08T19:18:49.272Z,46.20
2023-05-08T19:24:11.107Z,46.15
2023-05-08T19:29:35.276Z,45.58
2023-05-08T19:34:57.784Z,45.62
2023-05-08T19:40:19.672Z,45.56
2023-05-08T19:45:41.724Z,45.65
2023-05-08T19:51:07.639Z,45.55
2023-05-08T19:56:29.455Z,45.87
2023-05-08T20:01:51.316Z,45.75
2023-05-08T20:07:13.126Z,46.01
2023-05-08T20:12:34.980Z,45.71
2023-05-08T20:17:56.899Z,45.85
2023-05-08T20:23:18.856Z,45.94
2023-05-08T20:28:40.933Z,46.40
2023-05-08T20:34:02.683Z,46.60
2023-05-08T20:39:24.489Z,46.45
2023-05-08T20:44:46.317Z,46.45
2023-05-08T20:50:08.577Z,46.55
2023-05-08T20:55:30.448Z,46.59
2023-05-08T21:00:52.325Z,46.52
2023-05-08T21:06:14.151Z,46.46
2023-05-08T21:11:36.314Z,46.32
2023-05-08T21:16:58.147Z,46.90
2023-05-08T21:22:20.152Z,46.75
2023-05-08T21:27:45.069Z,46.62
2023-05-08T21:33:07.030Z,46.75
2023-05-08T21:38:29.016Z,46.49
2023-05-08T21:43:50.945Z,46.96
2023-05-08T21:49:13.046Z,46.76
2023-05-08T21:54:34.836Z,46.94
2023-05-08T21:59:56.888Z,46.51
2023-05-08T22:05:19.780Z,46.88
2023-05-08T22:10:44.379Z,46.50
2023-05-08T22:16:06.832Z,46.16
2023-05-08T22:21:30.275Z,46.22
2023-05-08T22:26:52.085Z,46.22
2023-05-08T22:32:14.436Z,46.70
2023-05-08T22:37:36.956Z,46.28
2023-05-08T22:42:59.411Z,46.58
2023-05-08T22:48:21.755Z,46.49
2023-05-08T22:53:43.613Z,46.37
2023-05-08T22:59:06.143Z,46.63
2023-05-08T23:04:28.015Z,46.86
2023-05-08T23:09:49.859Z,46.63
2023-05-08T23:15:12.760Z,46.47
2023-05-08T23:20:34.720Z,46.98
2023-05-08T23:26:01.160Z,46.49
2023-05-08T23:31:23.138Z,46.71
2023-05-08T23:36:44.993Z,46.57
2023-05-08T23:42:07.794Z,46.90
2023-05-08T23:47:29.595Z,46.73
2023-05-08T23:52:51.472Z,47.11
2023-05-08T23:58:13.223Z,46.92
